createdAt,value
2023-11-07T00:01:45.797Z,3.90
2023-11-07T00:04:12.732Z,4.57
2023-11-07T00:06:41.461Z,2.30
2023-11-07T00:09:08.766Z,4.32
2023-11-07T00:11:35.863Z,3.78
2023-11-07T00:14:03.132Z,2.67
2023-11-07T00:16:31.233Z,3.15
2023-11-07T00:18:57.845Z,2.92
2023-11-07T00:21:24.613Z,3.28
2023-11-07T00:23:51.113Z,2.40
2023-11-07T00:26:19.547Z,3.90
2023-11-07T00:28:49.581Z,3.58
2023-11-07T00:31:16.093Z,4.47
2023-11-07T00:33:43.120Z,2.47
2023-11-07T00:36:11.990Z,3.78
2023-11-07T00:38:38.688Z,6.35
2023-11-07T00:41:05.526Z,3.10
2023-11-07T00:43:32.103Z,3.80
2023-11-07T00:45:58.524Z,3.97
2023-11-07T00:48:25.327Z,2.92
2023-11-07T00:50:51.926Z,4.70
2023-11-07T00:53:18.485Z,2.28
2023-11-07T00:55:45.025Z,3.25
2023-11-07T00:58:11.466Z,4.70
2023-11-07T01:00:38.079Z,2.65
2023-11-07T01:03:04.762Z,3.67
2023-11-07T01:05:31.664Z,3.28
2023-11-07T01:07:58.418Z,9.18
2023-11-07T01:10:25.129Z,3.55
2023-11-07T01:12:54.044Z,4.43
2023-11-07T01:15:20.777Z,5.03
2023-11-07T01:17:47.488Z,3.92
2023-11-07T01:20:14.165Z,2.33
2023-11-07T01:22:40.931Z,4.88
2023-11-07T01:25:07.842Z,4.35
2023-11-07T01:27:34.441Z,3.25
2023-11-07T01:30:01.054Z,3.92
2023-11-07T01:32:29.245Z,4.40
2023-11-07T01:34:55.878Z,4.53
2023-11-07T01:37:22.445Z,2.72
2023-11-07T01:39:48.912Z,3.25
2023-11-07T01:42:15.461Z,4.30
2023-11-07T01:44:52.809Z,3.92
2023-11-07T01:47:21.850Z,3.10
2023-11-07T01:49:49.309Z,6.25
2023-11-07T01:52:18.761Z,4.60
2023-11-07T01:54:46.298Z,4.05
2023-11-07T01:57:13.672Z,2.88
2023-11-07T01:59:40.901Z,2.58
2023-11-07T02:02:11.794Z,3.80
2023-11-07T02:04:38.886Z,3.15
2023-11-07T02:07:07.737Z,3.20
2023-11-07T03:36:53.152Z,4.30
2023-11-07T03:39:19.981Z,3.63
2023-11-07T03:41:47.288Z,4.43
2023-11-07T03:44:14.957Z,3.60
2023-11-07T03:46:42.240Z,4.85
2023-11-07T03:49:08.978Z,3.50
2023-11-07T03:51:35.675Z,4.53
2023-11-07T03:54:02.420Z,4.55
2023-11-07T03:56:29.023Z,4.95
2023-11-07T03:58:55.445Z,4.47
2023-11-07T04:01:21.978Z,4.32
2023-11-07T04:03:48.538Z,4.57
2023-11-07T04:06:15.188Z,3.80
2023-11-07T04:08:41.668Z,4.82
2023-11-07T04:11:08.263Z,3.95
2023-11-07T04:13:35.556Z,3.40
2023-11-07T04:16:03.613Z,4.10
2023-11-07T04:18:30.557Z,3.95
2023-11-07T04:20:57.429Z,4.10
2023-11-07T04:23:24.412Z,7.38
2023-11-07T04:25:51.314Z,3.20
2023-11-07T04:28:18.002Z,4.90
2023-11-07T04:30:44.805Z,4.60
2023-11-07T04:33:11.541Z,4.32
2023-11-07T04:35:38.317Z,3.03
2023-11-07T04:38:05.825Z,7.05
2023-11-07T04:40:32.366Z,4.10
2023-11-07T04:42:59.056Z,3.05
2023-11-07T04:45:25.607Z,4.38
2023-11-07T04:47:52.296Z,3.88
2023-11-07T04:50:18.943Z,3.05
2023-11-07T04:52:45.527Z,6.80
2023-11-07T04:55:12.931Z,4.20
2023-11-07T04:57:39.818Z,5.47
2023-11-07T05:00:09.556Z,4.78
2023-11-07T05:02:36.248Z,4.40
2023-11-07T05:05:05.138Z,2.42
2023-11-07T05:07:31.622Z,2.75
2023-11-07T05:09:59.891Z,4.32
2023-11-07T05:12:26.783Z,5.20
2023-11-07T05:14:53.434Z,7.10
2023-11-07T05:17:21.896Z,5.13
2023-11-07T05:19:48.409Z,4.40
2023-11-07T05:22:15.217Z,6.32
2023-11-07T05:24:41.832Z,2.97
2023-11-07T05:27:09.092Z,3.60
2023-11-07T05:29:35.901Z,3.50
2023-11-07T05:32:03.377Z,4.97
2023-11-07T05:34:30.001Z,2.92
2023-11-07T05:36:56.754Z,3.50
2023-11-07T05:39:23.318Z,3.33
2023-11-07T05:41:49.887Z,4.25
2023-11-07T05:44:16.953Z,6.55
2023-11-07T05:46:43.580Z,3.92
2023-11-07T05:49:10.640Z,4.18
2023-11-07T05:51:39.274Z,5.22
2023-11-07T05:54:05.956Z,4.40
2023-11-07T05:56:32.506Z,3.38
2023-11-07T05:58:58.991Z,3.17
2023-11-07T06:01:25.472Z,3.55
2023-11-07T06:03:52.040Z,3.35
2023-11-07T06:06:18.695Z,3.35
2023-11-07T06:08:45.468Z,2.85
2023-11-07T06:11:12.049Z,3.47
2023-11-07T06:13:39.025Z,3.97
2023-11-07T06:16:06.295Z,2.47
2023-11-07T06:18:33.806Z,7.53
2023-11-07T06:21:00.491Z,4.65
2023-11-07T06:23:27.029Z,3.55
2023-11-07T06:25:53.576Z,3.03
2023-11-07T06:28:20.115Z,2.60
2023-11-07T06:30:47.443Z,3.83
2023-11-07T06:33:14.058Z,2.45
2023-11-07T06:35:40.756Z,2.00
2023-11-07T06:38:08.572Z,2.63
2023-11-07T06:40:35.715Z,3.40
2023-11-07T06:43:04.619Z,1.88
2023-11-07T06:45:31.245Z,3.15
2023-11-07T06:47:57.837Z,2.53
2023-11-07T06:50:24.667Z,2.78
2023-11-07T06:52:52.925Z,4.00
2023-11-07T06:55:24.513Z,2.83
2023-11-07T06:57:52.083Z,2.67
2023-11-07T07:00:22.216Z,2.85
2023-11-07T07:02:49.786Z,4.93
2023-11-07T07:05:17.415Z,3.08
2023-11-07T07:07:43.959Z,2.25
2023-11-07T07:10:11.597Z,3.80
2023-11-07T07:12:39.076Z,3.55
2023-11-07T07:15:09.141Z,2.78
2023-11-07T07:17:35.869Z,3.38
2023-11-07T07:20:04.432Z,4.25
2023-11-07T07:22:30.946Z,4.25
2023-11-07T07:24:57.656Z,3.08
2023-11-07T07:27:30.160Z,2.38
2023-11-07T07:29:58.133Z,4.45
2023-11-07T07:32:24.904Z,4.55
2023-11-07T07:34:52.801Z,1.48
2023-11-07T07:37:21.904Z,2.72
2023-11-07T07:39:49.235Z,2.90
2023-11-07T07:42:18.457Z,3.25
2023-11-07T07:44:45.915Z,2.17
2023-11-07T07:47:12.854Z,1.92
2023-11-07T07:49:41.162Z,4.38
2023-11-07T07:52:11.359Z,1.30
2023-11-07T07:55:00.429Z,3.55
2023-11-07T07:57:25.454Z,2.10
2023-11-07T07:59:51.967Z,2.13
2023-11-07T08:02:18.650Z,3.42
2023-11-07T08:04:47.582Z,3.35
2023-11-07T08:07:18.338Z,2.25
2023-11-07T08:09:46.782Z,2.33
2023-11-07T08:12:13.876Z,3.27
2023-11-07T08:14:42.249Z,1.95
2023-11-07T08:17:10.817Z,2.63
2023-11-07T08:19:37.384Z,1.97
2023-11-07T08:22:08.472Z,4.47
2023-11-07T08:24:35.230Z,2.95
2023-11-07T08:27:01.895Z,2.13
2023-11-07T08:29:28.764Z,5.57
2023-11-07T08:31:56.275Z,1.98
2023-11-07T08:34:23.647Z,1.42
2023-11-07T08:36:56.907Z,3.03
2023-11-07T08:39:34.973Z,3.78
2023-11-07T08:42:01.680Z,1.98
2023-11-07T08:44:28.290Z,2.83
2023-11-07T08:46:55.010Z,2.92
2023-11-07T08:49:22.732Z,1.58
2023-11-07T08:51:53.056Z,1.50
2023-11-07T08:54:20.221Z,1.15
2023-11-07T08:56:50.661Z,5.22
2023-11-07T08:59:19.350Z,2.63
2023-11-07T09:01:49.208Z,2.40
2023-11-07T09:04:16.061Z,4.57
2023-11-07T09:06:42.644Z,1.48
2023-11-07T09:09:09.926Z,2.67
2023-11-07T09:11:36.399Z,2.58
2023-11-07T09:14:02.932Z,1.83
2023-11-07T09:16:30.277Z,2.72
2023-11-07T09:18:56.839Z,5.97
2023-11-07T09:21:23.501Z,1.30
2023-11-07T09:23:51.320Z,3.80
2023-11-07T09:26:20.426Z,1.20
2023-11-07T09:28:46.974Z,3.28
2023-11-07T09:31:13.730Z,1.55
2023-11-07T09:33:40.536Z,2.75
2023-11-07T09:36:10.899Z,1.25
2023-11-07T09:38:46.998Z,5.30
2023-11-07T09:41:19.202Z,1.80
2023-11-07T09:43:46.135Z,2.70
2023-11-07T09:46:12.984Z,1.73
2023-11-07T09:48:40.360Z,1.58
2023-11-07T09:51:09.797Z,2.83
2023-11-07T09:56:05.970Z,1.20
2023-11-07T10:00:59.515Z,2.35
2023-11-07T10:03:26.213Z,2.67
2023-11-07T10:05:53.478Z,2.25
2023-11-07T10:08:28.246Z,2.20
2023-11-07T10:11:12.210Z,2.45
2023-11-07T10:13:39.532Z,2.35
2023-11-07T10:18:50.044Z,3.13
2023-11-07T10:21:30.534Z,2.42
2023-11-07T10:23:57.207Z,1.48
2023-11-07T10:26:25.536Z,2.42
2023-11-07T10:29:17.927Z,1.80
2023-11-07T10:32:01.925Z,2.45
2023-11-07T10:34:28.885Z,3.65
2023-11-07T10:36:55.784Z,2.08
2023-11-07T10:39:27.690Z,1.63
2023-11-07T10:41:59.544Z,2.25
2023-11-07T10:44:30.058Z,2.05
2023-11-07T10:47:01.311Z,6.90
2023-11-07T10:49:29.498Z,2.35
2023-11-07T10:51:57.024Z,1.27
2023-11-07T10:54:25.821Z,3.70
2023-11-07T10:56:52.838Z,1.10
2023-11-07T10:59:21.982Z,1.63
2023-11-07T11:01:52.820Z,3.42
2023-11-07T11:04:23.760Z,2.28
2023-11-07T11:06:54.868Z,3.25
2023-11-07T11:09:23.375Z,2.17
2023-11-07T11:11:52.205Z,1.42
2023-11-07T11:14:20.223Z,1.67
2023-11-07T11:16:51.398Z,3.00
2023-11-07T11:19:31.066Z,1.77
2023-11-07T11:22:03.860Z,3.80
2023-11-07T11:24:54.812Z,2.20
2023-11-07T11:27:25.280Z,2.60
2023-11-07T11:29:51.939Z,3.20
2023-11-07T11:32:28.490Z,1.67
2023-11-07T11:35:17.629Z,2.15
2023-11-07T11:38:22.485Z,3.03
2023-11-07T11:40:56.674Z,2.28
2023-11-07T11:43:25.844Z,1.20
2023-11-07T11:46:03.243Z,1.95
2023-11-07T11:48:53.912Z,1.70
2023-11-07T11:51:33.916Z,1.25
2023-11-07T11:54:00.978Z,3.17
2023-11-07T11:56:27.702Z,1.38
2023-11-07T11:59:04.871Z,3.83
2023-11-07T12:01:49.452Z,4.40
2023-11-07T12:04:42.945Z,0.80
2023-11-07T12:07:15.710Z,2.92
2023-11-07T12:09:44.114Z,0.88
2023-11-07T12:12:11.127Z,1.65
2023-11-07T12:14:58.237Z,1.98
2023-11-07T12:17:27.268Z,2.40
2023-11-07T12:20:08.710Z,1.92
2023-11-07T12:22:35.970Z,1.10
2023-11-07T12:25:14.789Z,0.77
2023-11-07T12:27:42.658Z,1.38
2023-11-07T12:30:27.135Z,2.55
2023-11-07T12:33:05.084Z,1.52
2023-11-07T12:35:34.184Z,1.02
2023-11-07T12:38:04.917Z,1.90
2023-11-07T12:40:32.376Z,1.52
2023-11-07T12:42:59.532Z,1.27
2023-11-07T12:45:30.492Z,1.42
2023-11-07T12:48:02.019Z,0.75
2023-11-07T12:50:34.510Z,2.67
2023-11-07T12:53:03.669Z,1.67
2023-11-07T12:55:31.626Z,0.73
2023-11-07T12:57:58.780Z,0.70
2023-11-07T13:00:29.951Z,0.52
2023-11-07T13:02:57.781Z,1.30
2023-11-07T13:05:27.914Z,1.70
2023-11-07T13:07:54.555Z,2.60
2023-11-07T13:10:24.287Z,0.57
2023-11-07T13:12:51.552Z,1.08
2023-11-07T13:15:18.261Z,4.50
2023-11-07T13:17:46.667Z,4.68
2023-11-07T13:20:14.717Z,2.80
2023-11-07T13:22:41.781Z,0.90
2023-11-07T13:25:10.643Z,1.33
2023-11-07T13:27:38.809Z,1.08
2023-11-07T13:30:09.925Z,1.98
2023-11-07T13:32:36.867Z,1.60
2023-11-07T13:35:04.686Z,1.98
2023-11-07T13:37:31.811Z,0.77
2023-11-07T13:39:59.470Z,2.25
2023-11-07T13:42:26.678Z,1.45
2023-11-07T13:44:53.485Z,0.98
2023-11-07T13:47:20.332Z,2.55
2023-11-07T13:49:47.144Z,1.75
2023-11-07T13:52:13.687Z,1.75
2023-11-07T13:54:40.263Z,4.20
2023-11-07T13:57:06.858Z,1.15
2023-11-07T13:59:33.500Z,1.33
2023-11-07T14:02:00.113Z,0.93
2023-11-07T14:04:26.738Z,3.22
2023-11-07T14:06:53.462Z,2.15
2023-11-07T14:09:20.545Z,3.35
2023-11-07T14:11:47.189Z,0.77
2023-11-07T14:14:13.681Z,0.90
2023-11-07T14:16:40.159Z,2.65
2023-11-07T14:19:09.332Z,2.20
2023-11-07T14:21:36.238Z,2.67
2023-11-07T14:24:03.741Z,1.38
2023-11-07T14:26:30.881Z,3.60
2023-11-07T14:29:01.795Z,1.15
2023-11-07T14:31:31.539Z,3.15
2023-11-07T14:34:01.966Z,1.63
2023-11-07T14:36:29.049Z,1.00
2023-11-07T14:38:55.686Z,2.83
2023-11-07T14:41:23.536Z,2.85
2023-11-07T14:43:50.046Z,2.65
2023-11-07T14:46:18.171Z,1.17
2023-11-07T14:48:44.792Z,2.08
2023-11-07T14:51:12.737Z,1.52
2023-11-07T14:53:39.422Z,1.77
2023-11-07T14:56:06.124Z,3.00
2023-11-07T14:58:33.818Z,3.13
2023-11-07T15:01:01.326Z,1.02
2023-11-07T15:03:28.081Z,1.88
2023-11-07T15:05:55.584Z,2.92
2023-11-07T15:08:23.457Z,2.53
2023-11-07T15:10:50.064Z,3.25
2023-11-07T15:13:16.542Z,1.52
2023-11-07T15:15:43.013Z,2.38
2023-11-07T15:18:12.777Z,3.08
2023-11-07T15:20:42.162Z,3.65
2023-11-07T15:23:09.157Z,3.28
2023-11-07T15:25:37.094Z,1.95
2023-11-07T15:28:04.963Z,2.63
2023-11-07T15:30:32.345Z,3.90
2023-11-07T15:33:01.529Z,1.92
2023-11-07T15:35:35.321Z,1.88
2023-11-07T15:38:02.254Z,3.03
2023-11-07T15:40:28.987Z,3.28
2023-11-07T15:42:56.029Z,3.45
2023-11-07T15:45:22.719Z,2.70
2023-11-07T15:47:50.220Z,3.58
2023-11-07T15:50:18.567Z,2.65
2023-11-07T15:53:03.843Z,3.30
2023-11-07T15:55:36.157Z,2.60
2023-11-07T15:58:03.021Z,3.80
2023-11-07T16:00:29.678Z,2.05
2023-11-07T16:02:57.353Z,4.18
2023-11-07T16:05:30.238Z,4.00
2023-11-07T16:07:57.025Z,4.43
2023-11-07T16:10:24.719Z,4.95
2023-11-07T16:12:52.269Z,3.40
2023-11-07T16:15:19.884Z,2.58
2023-11-07T16:17:47.971Z,4.55
2023-11-07T16:20:21.731Z,5.30
2023-11-07T16:22:48.670Z,5.13
2023-11-07T16:25:16.826Z,5.15
2023-11-07T16:27:43.711Z,3.75
2023-11-07T16:30:10.552Z,2.70
2023-11-07T16:32:37.125Z,6.43
2023-11-07T16:35:05.848Z,4.43
2023-11-07T16:37:35.581Z,2.97
2023-11-07T16:40:08.698Z,4.53
2023-11-07T16:42:35.410Z,4.65
2023-11-07T16:45:04.782Z,4.82
2023-11-07T16:49:58.306Z,2.75
2023-11-07T16:52:24.930Z,3.13
2023-11-07T16:54:53.745Z,5.88
2023-11-07T16:57:20.951Z,5.32
2023-11-07T16:59:48.203Z,3.95
2023-11-07T17:02:14.721Z,4.82
2023-11-07T17:04:42.988Z,3.70
2023-11-07T17:07:10.092Z,3.67
2023-11-07T17:09:37.274Z,4.18
2023-11-07T17:12:05.028Z,3.97
2023-11-07T17:14:31.733Z,5.35
2023-11-07T17:16:59.659Z,4.97
2023-11-07T17:19:26.520Z,4.88
2023-11-07T17:21:54.246Z,3.75
2023-11-07T17:24:26.158Z,4.05
2023-11-07T17:26:54.019Z,3.97
2023-11-07T17:29:22.113Z,3.03
2023-11-07T17:31:49.256Z,3.78
2023-11-07T17:34:16.168Z,2.83
2023-11-07T17:36:44.231Z,5.30
2023-11-07T17:39:18.605Z,6.25
2023-11-07T17:41:45.957Z,5.13
2023-11-07T17:44:12.650Z,5.45
2023-11-07T17:46:42.761Z,4.80
2023-11-07T17:49:09.531Z,7.30
2023-11-07T17:51:39.356Z,5.03
2023-11-07T17:54:08.940Z,3.67
2023-11-07T17:56:36.904Z,4.13
2023-11-07T17:59:04.461Z,5.78
2023-11-07T18:01:31.148Z,6.75
2023-11-07T18:03:57.816Z,4.18
2023-11-07T18:06:28.537Z,2.53
2023-11-07T18:08:55.712Z,3.58
2023-11-07T18:11:22.774Z,3.10
2023-11-07T18:13:49.444Z,5.80
2023-11-07T18:16:15.970Z,6.00
2023-11-07T18:18:57.410Z,3.60
2023-11-07T18:21:27.206Z,3.05
2023-11-07T18:23:54.769Z,4.55
2023-11-07T18:26:22.880Z,5.43
2023-11-07T18:28:50.485Z,5.22
2023-11-07T18:31:18.221Z,4.28
2023-11-07T18:33:49.452Z,4.13
2023-11-07T18:36:18.014Z,2.85
2023-11-07T18:38:45.284Z,2.63
2023-11-07T18:41:12.021Z,3.03
2023-11-07T18:43:38.635Z,5.20
2023-11-07T18:46:06.352Z,4.15
2023-11-07T18:48:34.337Z,3.55
2023-11-07T18:51:01.577Z,2.47
2023-11-07T18:53:37.182Z,2.70
2023-11-07T18:56:14.180Z,3.05
2023-11-07T18:58:40.867Z,3.53
2023-11-07T19:01:09.174Z,4.75
2023-11-07T19:03:36.063Z,5.10
2023-11-07T19:06:02.814Z,6.13
2023-11-07T19:08:29.273Z,3.45
2023-11-07T19:10:55.857Z,4.18
2023-11-07T19:13:22.587Z,4.13
2023-11-07T19:15:49.427Z,5.75
2023-11-07T19:18:16.003Z,5.57
2023-11-07T19:20:43.073Z,4.20
2023-11-07T19:23:10.428Z,6.20
2023-11-07T19:25:37.781Z,4.55
2023-11-07T19:28:04.818Z,3.03
2023-11-07T19:30:31.887Z,4.57
2023-11-07T19:32:58.783Z,3.78
2023-11-07T19:35:25.999Z,9.25
2023-11-07T19:37:54.727Z,3.67
2023-11-07T19:40:24.428Z,4.60
2023-11-07T19:42:52.835Z,8.57
2023-11-07T19:45:19.811Z,4.63
2023-11-07T19:47:46.594Z,6.25
2023-11-07T19:50:14.089Z,5.68
2023-11-07T19:52:41.929Z,4.10
2023-11-07T19:55:08.807Z,5.75
2023-11-07T19:57:37.955Z,2.95
2023-11-07T20:00:13.639Z,4.82
2023-11-07T20:02:43.763Z,4.70
2023-11-07T20:05:13.956Z,5.55
2023-11-07T20:07:51.399Z,5.22
2023-11-07T20:10:22.739Z,5.82
2023-11-07T20:12:49.411Z,6.25
2023-11-07T20:15:17.279Z,6.25
2023-11-07T20:17:43.912Z,7.80
2023-11-07T20:20:11.049Z,7.03
2023-11-07T20:22:37.875Z,5.95
2023-11-07T20:25:06.827Z,6.70
2023-11-07T20:30:00.482Z,3.78
2023-11-07T20:32:27.115Z,5.28
2023-11-07T20:34:58.063Z,8.07
2023-11-07T20:37:26.055Z,6.47
2023-11-07T20:39:52.731Z,6.43
2023-11-07T20:42:20.412Z,3.88
2023-11-07T20:44:49.885Z,6.13
2023-11-07T20:47:18.813Z,5.38
2023-11-07T20:49:48.925Z,9.02
2023-11-07T20:52:25.118Z,6.18
2023-11-07T20:54:56.153Z,5.93
2023-11-07T20:57:23.782Z,5.50
2023-11-07T20:59:52.588Z,7.47
2023-11-07T21:02:19.150Z,5.90
2023-11-07T21:04:45.668Z,7.85
2023-11-07T21:07:12.847Z,8.35
2023-11-07T21:09:40.256Z,6.15
2023-11-07T21:12:07.295Z,5.30
2023-11-07T21:14:34.897Z,5.47
2023-11-07T21:17:01.474Z,7.70
2023-11-07T21:19:28.410Z,5.78
2023-11-07T21:22:00.571Z,8.15
2023-11-07T21:24:27.497Z,5.45
2023-11-07T21:26:54.372Z,8.32
2023-11-07T21:29:21.241Z,7.90
2023-11-07T21:31:48.581Z,7.78
2023-11-07T21:34:15.855Z,7.70
2023-11-07T21:36:44.251Z,9.73
2023-11-07T21:39:12.793Z,8.15
2023-11-07T21:41:39.648Z,5.70
2023-11-07T21:44:06.107Z,9.10
2023-11-07T21:46:32.942Z,4.07
2023-11-07T21:49:00.851Z,6.85
2023-11-07T21:51:27.892Z,5.80
2023-11-07T21:53:55.299Z,8.00
2023-11-07T21:56:22.739Z,6.65
2023-11-07T21:58:49.370Z,9.05
2023-11-07T22:01:17.351Z,4.63
2023-11-07T22:03:47.209Z,5.85
2023-11-07T22:06:14.058Z,9.23
2023-11-07T22:08:40.522Z,6.82
2023-11-07T22:11:10.100Z,6.00
2023-11-07T22:13:39.535Z,7.28
2023-11-07T22:16:06.514Z,6.38
2023-11-07T22:18:33.432Z,5.30
2023-11-07T22:21:00.495Z,4.97
2023-11-07T22:23:27.588Z,6.03
2023-11-07T22:25:54.621Z,7.30
2023-11-07T22:28:21.152Z,6.13
2023-11-07T22:30:48.046Z,7.07
2023-11-07T22:33:14.668Z,6.80
2023-11-07T22:35:41.284Z,8.13
2023-11-07T22:38:08.716Z,7.63
2023-11-07T22:40:35.977Z,6.90
2023-11-07T22:43:02.993Z,4.63
2023-11-07T22:45:29.670Z,5.25
2023-11-07T22:47:56.422Z,10.32
2023-11-07T22:50:24.658Z,6.07
2023-11-07T22:52:51.428Z,5.50
2023-11-07T22:55:18.075Z,10.68
2023-11-07T22:57:44.612Z,9.57
2023-11-07T23:00:16.570Z,6.13
2023-11-07T23:02:43.083Z,5.60
2023-11-07T23:05:09.736Z,6.28
2023-11-07T23:07:36.817Z,7.05
2023-11-07T23:10:03.525Z,9.65
2023-11-07T23:12:30.160Z,4.82
2023-11-07T23:14:56.709Z,6.65
2023-11-07T23:17:23.289Z,5.57
2023-11-07T23:19:49.732Z,4.93
2023-11-07T23:22:16.255Z,8.93
2023-11-07T23:24:45.536Z,5.63
2023-11-07T23:29:44.900Z,6.00
2023-11-07T23:34:37.789Z,5.85
2023-11-07T23:37:04.592Z,6.90
2023-11-07T23:39:31.148Z,5.88
2023-11-07T23:41:57.727Z,9.23
2023-11-07T23:44:27.375Z,5.82
2023-11-07T23:46:54.002Z,8.15
2023-11-07T23:49:20.777Z,6.03
2023-11-07T23:51:47.865Z,5.53
2023-11-07T23:54:14.400Z,9.07
2023-11-07T23:56:41.184Z,8.63
2023-11-07T23:59:07.696Z,7.40
